Latest Weather Observations for Moranbah Airport

IDQ60801

Issued at 4:02 pm EST Sunday 7 February 2016 (issued every 30 minutes, with the page automatically refreshed every 10 minutes)

About weather observations | Map of weather stations | Latest weather observations for QLD | Other Formats
Station Details ID: 034035 Name: MORANBAH AIRPORT Lat: -22.06 Lon: 148.08 Height: 232.2 m
Data from the previous 72 hours. | See also: Recent months at Moranbah Airport
Date/Time
EST
Temp
°C
App
Temp
°C
Dew
Point
Rel
Hum
%
Delta-T
°C
Wind Press
QNH
hPa
Press
MSL
hPa
Rain
since 9 am
mm
Dir
 
Spd
km/h
Gust
km/h
Spd
kts
Gust
kts
07/04:00pm 27.4 28.5 23.6 80 2.6 SE 24 30 13 16 1008.6 1007.0 0.0
07/03:30pm 28.1 30.4 24.1 79 2.8 ESE 19 24 10 13 1008.4 1006.8 0.0
07/03:00pm 28.0 29.4 22.9 74 3.5 ESE 20 26 11 14 1008.5 1006.9 0.0
07/02:30pm 28.2 30.8 24.6 81 2.5 SE 19 26 10 14 1008.7 1007.1 0.0
07/02:00pm 28.5 30.8 24.1 77 3.1 ESE 19 24 10 13 1008.8 1007.2 0.0
07/01:30pm 28.1 30.0 23.7 77 3.1 E 20 28 11 15 1009.2 1007.6 0.0
07/01:00pm 27.6 30.0 23.6 79 2.8 E 17 22 9 12 1009.4 1007.8 0.0
07/12:30pm 27.6 29.8 24.0 81 2.5 ESE 19 24 10 13 1009.7 1008.1 0.0
07/12:03pm 27.2 29.1 23.7 81 2.4 ESE 20 26 11 14 1009.9 1008.3 0.0
07/12:00pm 26.9 28.6 23.4 81 2.4 ESE 20 26 11 14 1009.9 1008.3 0.0
07/11:30am 26.3 27.8 23.0 82 2.3 ESE 20 30 11 16 1010.2 1008.6 0.0
07/11:00am 26.1 27.5 23.6 86 1.7 SE 22 26 12 14 1010.4 1008.8 0.0
07/10:30am 25.8 27.7 23.7 88 1.4 ESE 20 26 11 14 1010.5 1008.9 0.0
07/10:00am 24.9 26.5 23.3 91 1.1 SE 20 26 11 14 1010.5 1008.9 0.0
07/09:30am 24.5 26.1 22.9 91 1.1 SE 19 24 10 13 1010.4 1008.8 0.0
07/09:00am 25.8 28.0 24.9 95 0.6 SE 22 32 12 17 1010.1 1008.5 27.2
07/08:58am 25.4 27.0 24.5 95 0.6 SE 24 32 13 17 1010.0 1008.4 27.2
07/08:30am 24.3 26.2 23.8 97 0.3 SE 20 26 11 14 1009.8 1008.2 27.2
07/08:08am 24.3 26.4 23.8 97 0.3 SE 19 28 10 15 1009.5 1007.9 27.0
07/08:00am 24.3 26.1 23.6 96 0.5 ESE 20 24 11 13 1009.5 1007.9 27.0
07/07:58am 24.2 26.0 23.5 96 0.5 SE 20 24 11 13 1009.4 1007.8 27.0
07/07:45am 24.2 26.3 23.7 97 0.3 SE 19 26 10 14 1009.3 1007.7 27.0
07/07:30am 23.9 25.8 23.4 97 0.3 SE 19 24 10 13 1009.2 1007.6 27.0
07/07:13am 23.8 25.6 23.3 97 0.3 SE 19 24 10 13 1009.1 1007.5 26.8
07/07:00am 23.9 25.8 23.4 97 0.3 SE 19 26 10 14 1009.0 1007.4 26.8
07/06:30am 23.7 26.0 23.4 98 0.2 SE 17 20 9 11 1008.9 1007.3 26.8
07/06:27am 23.7 26.0 23.4 98 0.2 SE 17 20 9 11 1008.9 1007.3 26.8
07/06:00am 23.6 25.8 23.3 98 0.2 ESE 17 20 9 11 1008.6 1007.0 26.8
07/05:30am 23.7 26.0 23.4 98 0.2 SE 17 20 9 11 1008.2 1006.6 26.8
07/05:00am 23.6 26.2 23.3 98 0.2 SE 15 20 8 11 1007.8 1006.2 26.8
07/04:58am 23.6 26.2 23.3 98 0.2 SE 15 19 8 10 1007.6 1006.1 26.8
07/04:30am 23.5 26.0 23.2 98 0.2 ESE 15 20 8 11 1007.4 1005.9 26.6
07/04:00am 23.6 26.2 23.3 98 0.2 SE 15 20 8 11 1007.3 1005.8 25.8
07/03:30am 23.6 26.2 23.3 98 0.2 SE 15 20 8 11 1007.1 1005.6 25.8
07/03:00am 23.7 26.4 23.4 98 0.2 SE 15 19 8 10 1007.0 1005.5 25.8
07/02:30am 23.8 26.4 23.3 97 0.3 SE 15 19 8 10 1007.2 1005.7 25.8
07/02:18am 23.8 25.9 23.1 96 0.5 ESE 17 20 9 11 1007.2 1005.7 25.8
07/02:00am 23.9 26.8 23.2 96 0.5 ESE 13 17 7 9 1007.2 1005.7 25.8
07/01:30am 23.9 26.4 23.2 96 0.5 ESE 15 22 8 12 1007.3 1005.8 25.8
07/01:00am 23.9 26.1 23.2 96 0.5 ESE 17 22 9 12 1007.3 1005.8 25.8
07/12:30am 23.8 25.4 23.3 97 0.3 ESE 20 26 11 14 1007.6 1006.1 25.8
07/12:00am 23.9 25.8 23.4 97 0.3 ESE 19 26 10 14 1007.9 1006.3 25.8
 
Date/Time
EST
Temp
°C
App
Temp
°C
Dew
Point
Rel
Hum
%
Delta-T
°C
Wind Press
QNH
hPa
Press
MSL
hPa
Rain
since 9 am
mm
Dir
 
Spd
km/h
Gust
km/h
Spd
kts
Gust
kts
06/11:30pm 23.9 27.0 23.6 98 0.2 ESE 13 20 7 11 1008.5 1006.9 25.6
06/11:00pm 24.0 26.3 23.5 97 0.3 E 17 20 9 11 1008.8 1007.2 25.2
06/10:30pm 24.1 26.5 23.6 97 0.3 ESE 17 20 9 11 1008.9 1007.3 24.0
06/10:00pm 24.1 26.1 23.6 97 0.3 ESE 19 24 10 13 1008.8 1007.2 23.0
06/09:40pm 24.1 25.9 23.6 97 0.3 ESE 20 26 11 14 1008.6 1007.0 22.0
06/09:30pm 24.2 26.3 23.7 97 0.3 SE 19 26 10 14 1008.4 1006.8 21.0
06/09:13pm 24.2 26.8 23.9 98 0.2 SE 17 26 9 14 1008.2 1006.6 18.8
06/09:00pm 24.4 26.4 23.9 97 0.3 ESE 20 28 11 15 1008.0 1006.4 17.2
06/08:30pm 24.6 26.9 24.1 97 0.3 ESE 19 24 10 13 1007.8 1006.2 14.0
06/08:12pm 24.8 28.7 24.3 97 0.3 ESE 11 19 6 10 1008.0 1006.4 12.8
06/08:00pm 24.7 28.6 24.2 97 0.3 E 11 13 6 7 1007.9 1006.3 11.8
06/07:52pm 24.7 28.6 24.2 97 0.3 ENE 11 17 6 9 1007.6 1006.1 10.6
06/07:45pm 24.6 27.2 23.9 96 0.5 ENE 17 22 9 12 1007.3 1005.8 9.0
06/07:30pm 24.9 27.6 24.2 96 0.5 ENE 17 24 9 13 1007.5 1006.0 3.6
06/07:00pm 25.0 27.3 24.1 95 0.6 ESE 19 24 10 13 1006.1 1004.5 0.8
06/06:30pm 25.1 27.1 23.9 93 0.8 SE 20 26 11 14 1005.7 1004.1 0.2
06/06:00pm 25.8 28.0 24.0 90 1.2 ESE 19 26 10 14 1005.7 1004.1 0.0
06/05:30pm 26.0 28.0 24.0 89 1.4 ESE 20 28 11 15 1004.7 1003.1 0.0
06/05:23pm 26.1 28.2 24.1 89 1.4 SE 20 28 11 15 1004.7 1003.1 0.0
06/05:07pm 26.0 27.8 24.2 90 1.3 SE 22 32 12 17 1004.5 1002.9 0.0
06/05:00pm 26.0 27.4 24.2 90 1.3 SE 24 35 13 19 1004.4 1002.8 0.0
06/04:30pm 26.6 28.4 24.3 87 1.6 SE 22 32 12 17 1004.1 1002.5 0.0
06/04:00pm 26.8 27.8 24.1 85 1.9 SE 26 33 14 18 1003.7 1002.1 0.0
06/03:30pm 27.0 27.5 23.9 83 2.2 SE 28 37 15 20 1004.1 1002.5 0.0
06/03:00pm 27.1 27.5 23.8 82 2.3 SE 28 35 15 19 1004.5 1002.9 0.0
06/02:30pm 28.7 30.8 25.3 82 2.4 SE 24 32 13 17 1004.6 1003.0 0.0
06/02:00pm 28.1 30.1 24.5 81 2.5 SE 22 28 12 15 1005.1 1003.5 0.0
06/01:30pm 28.0 29.2 23.2 75 3.3 E 22 33 12 18 1005.3 1003.7 0.0
06/01:00pm 27.8 29.6 23.6 78 2.9 E 20 28 11 15 1005.7 1004.1 0.0
06/12:30pm 27.3 28.8 23.1 78 2.9 E 20 30 11 16 1006.1 1004.5 0.0
06/12:07pm 26.5 28.1 22.8 80 2.5 ESE 19 26 10 14 1006.4 1004.8 0.0
06/12:00pm 26.5 28.1 22.8 80 2.5 ESE 19 26 10 14 1006.5 1004.9 0.0
06/11:30am 25.9 27.0 22.4 81 2.4 ESE 20 28 11 15 1006.7 1005.2 0.0
06/11:00am 25.7 26.8 22.4 82 2.2 ESE 20 24 11 13 1006.8 1005.3 0.0
06/10:30am 25.3 26.2 22.0 82 2.2 ESE 20 26 11 14 1007.0 1005.5 0.0
06/10:00am 25.1 26.0 22.0 83 2.1 ESE 20 28 11 15 1006.9 1005.4 0.0
06/09:30am 24.6 25.1 21.9 85 1.8 ESE 22 30 12 16 1006.7 1005.2 0.0
06/09:00am 24.3 25.0 21.6 85 1.8 SE 20 30 11 16 1006.4 1004.8 169.0
06/08:30am 24.1 24.4 21.6 86 1.7 ESE 22 30 12 16 1006.3 1004.7 169.0
06/08:28am 24.0 24.3 21.5 86 1.7 ESE 22 30 12 16 1006.3 1004.7 169.0
06/08:00am 23.8 23.6 21.3 86 1.7 SE 24 32 13 17 1006.1 1004.5 169.0
06/07:30am 23.4 23.6 21.3 88 1.4 SE 22 30 12 16 1005.9 1004.3 169.0
06/07:00am 23.0 23.2 21.3 90 1.1 ESE 22 28 12 15 1005.7 1004.1 169.0
06/06:30am 22.7 22.8 21.2 91 1.0 SE 22 30 12 16 1005.5 1003.9 169.0
06/06:00am 22.8 23.4 21.4 92 0.9 SE 20 28 11 15 1005.2 1003.6 169.0
06/05:30am 22.9 24.2 21.7 93 0.8 ESE 17 24 9 13 1004.9 1003.3 169.0
06/05:00am 22.8 23.7 21.6 93 0.8 ESE 19 24 10 13 1004.7 1003.1 169.0
06/04:32am 22.8 24.1 21.6 93 0.8 SE 17 24 9 13 1004.5 1002.9 169.0
06/04:30am 22.7 24.0 21.7 94 0.7 SE 17 24 9 13 1004.5 1002.9 169.0
06/04:00am 22.8 24.3 22.0 95 0.5 ESE 17 20 9 11 1004.5 1002.9 169.0
06/03:30am 22.7 23.2 22.0 96 0.5 ESE 22 28 12 15 1004.2 1002.6 169.0
06/03:00am 22.9 23.1 22.1 95 0.5 ESE 24 32 13 17 1004.3 1002.7 169.0
06/02:30am 23.0 23.9 22.0 94 0.7 ESE 20 28 11 15 1004.6 1003.0 169.0
06/02:00am 23.1 24.1 22.1 94 0.7 SE 20 24 11 13 1004.4 1002.8 169.0
06/01:30am 23.1 24.1 22.1 94 0.7 ESE 20 28 11 15 1004.4 1002.8 169.0
06/01:00am 23.1 23.6 21.9 93 0.8 ESE 22 30 12 16 1004.4 1002.8 169.0
06/12:30am 23.3 23.8 22.6 96 0.5 ESE 24 33 13 18 1004.4 1002.8 169.0
06/12:10am 23.2 24.5 22.7 97 0.3 ESE 20 28 11 15 1004.7 1003.1 169.0
06/12:00am 23.2 23.6 22.5 96 0.5 ESE 24 35 13 19 1004.8 1003.2 169.0
 
Date/Time
EST
Temp
°C
App
Temp
°C
Dew
Point
Rel
Hum
%
Delta-T
°C
Wind Press
QNH
hPa
Press
MSL
hPa
Rain
since 9 am
mm
Dir
 
Spd
km/h
Gust
km/h
Spd
kts
Gust
kts
05/11:37pm 23.3 23.0 22.6 96 0.5 ESE 28 37 15 20 1005.2 1003.6 168.8
05/11:30pm 23.3 22.7 22.6 96 0.5 ESE 30 39 16 21 1005.4 1003.8 168.8
05/11:00pm 23.5 23.0 22.8 96 0.5 E 30 37 16 20 1006.0 1004.4 168.2
05/10:30pm 23.7 24.1 23.2 97 0.3 ESE 26 37 14 20 1006.0 1004.4 167.6
05/10:00pm 23.9 24.2 23.6 98 0.2 ESE 28 39 15 21 1005.8 1004.2 166.2
05/09:30pm 24.1 25.0 23.9 99 0.1 E 26 35 14 19 1006.1 1004.5 165.2
05/09:00pm 24.0 25.7 24.0 100 0.0 ESE 22 30 12 16 1006.2 1004.6 163.8
05/08:30pm 24.1 25.8 24.1 100 0.0 ESE 22 28 12 15 1006.0 1004.4 162.2
05/08:00pm 24.4 26.7 24.4 100 0.0 ESE 20 30 11 16 1005.6 1004.0 159.6
05/07:39pm 24.5 27.8 24.5 100 0.0 E 15 26 8 14 1005.3 1003.7 158.4
05/07:30pm 24.5 27.8 24.5 100 0.0 E 15 20 8 11 1005.2 1003.6 157.8
05/07:14pm 24.4 26.9 24.4 100 0.0 ESE 19 26 10 14 1004.9 1003.3 155.4
05/07:00pm 24.4 26.7 24.4 100 0.0 ESE 20 30 11 16 1004.6 1003.0 151.6
05/06:39pm 24.2 26.6 24.2 100 0.0 E 19 24 10 13 1004.2 1002.6 138.6
05/06:30pm 24.2 25.6 24.2 100 0.0 E 24 32 13 17 1004.0 1002.4 135.4
05/06:00pm 24.6 26.3 24.6 100 0.0 ESE 24 32 13 17 1003.8 1002.2 113.6
05/05:30pm 24.8 26.5 24.6 99 0.1 SE 24 32 13 17 1003.7 1002.1 79.6
05/05:14pm 24.9 27.3 24.6 98 0.2 SSE 20 30 11 16 1003.4 1001.8 57.2
05/05:00pm 25.4 28.7 25.1 98 0.2 SE 17 26 9 14 1002.9 1001.4 36.6
05/04:58pm 25.4 28.2 24.9 97 0.4 SE 19 30 10 16 1002.8 1001.3 36.2
05/04:30pm 25.7 27.5 24.8 95 0.6 E 24 32 13 17 1002.4 1000.8 22.6
05/04:24pm 25.9 28.0 24.7 93 0.8 E 22 32 12 17 1002.1 1000.5 18.0
05/04:13pm 26.9 29.7 24.9 89 1.4 ESE 19 35 10 19 1001.8 1000.2 3.6
05/04:00pm 27.8 28.3 24.6 83 2.3 ESE 30 37 16 20 1001.0 999.4 0.8
05/03:30pm 30.5 32.3 24.2 69 4.4 SE 22 32 12 17 1001.4 999.8 0.0
05/03:00pm 31.2 33.9 24.8 69 4.5 ESE 19 24 10 13 1002.0 1000.4 0.0
05/02:30pm 31.1 34.0 23.2 63 5.5 E 13 20 7 11 1002.4 1000.8 0.0
05/02:00pm 30.9 34.4 23.5 64 5.2 NE 11 19 6 10 1002.7 1001.1 0.0
05/01:30pm 30.8 34.3 23.5 65 5.1 ESE 11 20 6 11 1003.5 1001.9 0.0
05/01:00pm 30.2 34.1 23.6 67 4.6 ENE 9 17 5 9 1003.8 1002.2 0.0
05/12:30pm 30.1 33.5 23.3 67 4.7 NNE 11 15 6 8 1004.1 1002.5 0.0
05/12:00pm 30.0 34.1 23.9 70 4.3 NE 9 15 5 8 1004.4 1002.8 0.0
05/11:30am 29.3 33.3 23.7 72 3.9 NNE 9 15 5 8 1004.7 1003.1 0.0
05/11:00am 29.2 33.9 25.0 78 3.0 NNE 9 15 5 8 1005.2 1003.6 0.0
05/10:30am 27.9 31.9 23.7 78 2.9 N 9 15 5 8 1005.7 1004.1 0.0
05/10:00am 27.6 31.2 23.8 80 2.6 N 11 15 6 8 1005.8 1004.2 0.0
05/09:30am 27.1 31.1 23.8 82 2.3 NNE 9 13 5 7 1005.8 1004.2 0.0
05/09:28am 27.1 31.1 23.8 82 2.3 NNE 9 13 5 7 1005.8 1004.2 0.0
05/09:00am 26.7 30.6 23.6 83 2.1 NNE 9 13 5 7 1005.6 1004.0 2.0
05/08:30am 26.2 30.5 23.7 86 1.7 NE 7 11 4 6 1005.4 1003.8 2.0
05/08:25am 26.4 31.0 24.1 87 1.6 NE 7 11 4 6 1005.4 1003.8 2.0
05/08:00am 25.7 29.6 23.6 88 1.5 NNE 9 11 5 6 1005.1 1003.5 2.0
05/07:53am 25.8 29.9 24.0 90 1.2 NE 9 11 5 6 1005.0 1003.4 2.0
05/07:30am 25.1 29.1 23.7 92 1.0 NNE 9 11 5 6 1004.9 1003.3 2.0
05/07:00am 24.6 28.4 23.4 93 0.8 NNE 9 11 5 6 1004.7 1003.1 2.0
05/06:39am 24.9 29.4 24.0 95 0.6 ENE 7 9 4 5 1004.4 1002.8 2.0
05/06:30am 24.9 29.6 24.0 95 0.6 NNE 6 7 3 4 1004.4 1002.8 2.0
05/06:22am 24.9 29.6 24.0 95 0.6 N 6 7 3 4 1004.2 1002.6 2.0
05/06:00am 24.7 29.1 23.8 95 0.6 NNW 7 9 4 5 1003.9 1002.3 2.0
05/05:30am 24.7 29.2 24.0 96 0.5 NW 7 9 4 5 1003.3 1001.7 2.0
05/05:00am 24.7 29.0 24.2 97 0.3 NW 9 11 5 6 1002.9 1001.4 2.0
05/04:30am 24.6 29.2 24.1 97 0.3 NNW 7 9 4 5 1002.4 1000.8 2.0
05/04:00am 24.4 28.9 23.7 96 0.5 NW 6 7 3 4 1002.2 1000.6 2.0
05/03:47am 24.5 28.9 23.8 96 0.5 NW 7 9 4 5 1002.1 1000.5 2.0
05/03:30am 24.4 28.7 23.7 96 0.5 W 7 7 4 4 1002.2 1000.6 2.0
05/03:23am 24.4 28.7 23.7 96 0.5 W 7 9 4 5 1002.2 1000.6 2.0
05/03:08am 24.5 29.0 23.6 95 0.6 W 6 7 3 4 1002.4 1000.8 2.0
05/03:00am 24.5 29.0 23.6 95 0.6 WSW 6 7 3 4 1002.5 1000.9 2.0
05/02:46am 24.5 28.8 23.6 95 0.6 SW 7 9 4 5 1002.7 1001.1 2.0
05/02:30am 24.6 29.1 23.6 94 0.7 W 6 7 3 4 1003.0 1001.5 2.0
05/02:00am 24.6 28.9 23.6 94 0.7 NNW 7 11 4 6 1003.7 1002.1 2.0
05/01:30am 25.0 29.8 24.5 97 0.3 NNE 7 9 4 5 1004.2 1002.6 1.8
05/01:00am 24.9 28.9 24.4 97 0.3 NNE 11 13 6 7 1004.6 1003.0 1.8
05/12:35am 24.9 29.7 24.2 96 0.5 NW 6 7 3 4 1004.9 1003.3 1.6
05/12:30am 24.9 29.7 24.2 96 0.5 NW 6 7 3 4 1005.0 1003.4 1.6
05/12:00am 24.9 29.6 24.0 95 0.6 NNW 6 7 3 4 1005.4 1003.8 1.2
 
Date/Time
EST
Temp
°C
App
Temp
°C
Dew
Point
Rel
Hum
%
Delta-T
°C
Wind Press
QNH
hPa
Press
MSL
hPa
Rain
since 9 am
mm
Dir
 
Spd
km/h
Gust
km/h
Spd
kts
Gust
kts
04/11:46pm 24.9 29.4 23.9 94 0.7 NNW 7 9 4 5 1005.7 1004.1 1.0
04/11:30pm 25.1 29.6 23.9 93 0.8 NW 7 9 4 5 1006.1 1004.5 0.8
04/11:00pm 25.2 29.8 23.8 92 1.0 NW 6 7 3 4 1006.5 1004.9 0.6
04/10:41pm 25.4 29.9 24.0 92 1.0 WNW 7 9 4 5 1006.8 1005.3 0.6
04/10:30pm 25.4 29.5 24.0 92 1.0 WNW 9 11 5 6 1006.7 1005.2 0.6
04/10:00pm 25.4 29.4 23.8 91 1.1 N 9 13 5 7 1006.4 1004.8 0.4
04/09:30pm 25.5 28.3 23.7 90 1.2 NNW 15 20 8 11 1005.9 1004.3 0.2
04/09:00pm 25.7 30.4 23.4 87 1.6 NE 4 9 2 5 1006.1 1004.5 0.2
04/08:30pm 26.1 27.9 22.6 81 2.4 NW 17 26 9 14 1005.9 1004.3 0.2
04/08:00pm 26.8 29.8 23.3 81 2.4 W 13 26 7 14 1005.2 1003.6 0.2
04/07:30pm 27.1 30.9 24.0 83 2.2 ENE 11 19 6 10 1004.7 1003.1 0.2
04/07:00pm 28.3 30.1 23.2 74 3.5 ESE 19 22 10 12 1004.0 1002.4 0.0
04/06:30pm 30.9 35.6 24.3 68 4.6 SSW 7 9 4 5 1003.3 1001.7 0.0
04/06:00pm 31.5 35.3 24.1 65 5.2 SW 11 15 6 8 1002.7 1001.1 0.0
04/05:30pm 32.4 35.9 23.6 59 6.2 WSW 11 17 6 9 1002.4 1000.8 0.0
04/05:00pm 32.6 35.6 23.3 58 6.5 WSW 13 17 7 9 1002.1 1000.5 0.0
04/04:30pm 32.5 34.7 23.2 58 6.5 WNW 17 24 9 13 1001.8 1000.2 0.0

Other Formats:

Comma delimited format used in spreadsheet applications
http://www.bom.gov.au/fwo/IDQ60801/IDQ60801.94397.axf

JavaScript Object Notation format (JSON) in row-major order
http://www.bom.gov.au/fwo/IDQ60801/IDQ60801.94397.json